RYV weather

Watertown Municipal Airport
Watertown, Wisconsin, United States

Public forecast

Using degrees Fahrenheit for public forecast. Weather courtesy of forecast.io.

Current aviation weather report (METAR) for Watertown Municipal Airport

Retrieved 2020/07/05 16:35 UTC (1 minute ago):

KRYV 051635Z AUTO 22005KT 10SM CLR 29/20 A3002 RMK AO2 T02910204

Closest aviation forecast (TAF) to Watertown Municipal Airport

Closest forecast is Waukesha County Airport, 22.7 nm (42.0 km) ESE. Retrieved 2020/07/05 12:22 UTC (4 hours ago):

TAF KUES 051120Z 0512/0612 00000KT 5SM BR SKC FM051300 00000KT P6SM FEW250 FM051700 32003KT P6SM FEW060 FEW250 FM060300 VRB03KT P6SM FEW200